createdAt,value
2018-10-12T00:00:52.534Z,23.87
2018-10-12T00:03:21.343Z,22.50
2018-10-12T00:05:49.996Z,20.97
2018-10-12T00:08:18.598Z,23.47
2018-10-12T00:10:47.145Z,19.42
2018-10-12T00:13:15.855Z,21.30
2018-10-12T00:15:44.411Z,19.57
2018-10-12T00:18:12.955Z,22.62
2018-10-12T00:20:41.479Z,19.37
2018-10-12T00:23:10.032Z,19.60
2018-10-12T00:25:38.563Z,25.17
2018-10-12T00:28:07.202Z,23.22
2018-10-12T00:30:36.115Z,24.43
2018-10-12T00:33:04.722Z,24.75
2018-10-12T00:35:33.275Z,26.15
2018-10-12T00:38:01.819Z,27.40
2018-10-12T00:40:30.372Z,22.60
2018-10-12T00:42:59.315Z,23.47
2018-10-12T00:45:27.851Z,20.48
2018-10-12T00:47:59.503Z,18.62
2018-10-12T00:50:29.019Z,15.65
2018-10-12T00:52:57.559Z,14.25
2018-10-12T00:55:27.185Z,20.08
2018-10-12T00:57:55.743Z,15.25
2018-10-12T01:00:26.005Z,18.55
2018-10-12T01:02:55.339Z,17.30
2018-10-12T01:05:24.227Z,15.48
2018-10-12T01:07:52.784Z,20.68
2018-10-12T01:10:21.592Z,17.75
2018-10-12T01:12:50.167Z,16.40
2018-10-12T01:15:18.820Z,16.97
2018-10-12T01:17:47.475Z,19.95
2018-10-12T01:20:16.112Z,14.90
2018-10-12T01:22:44.710Z,17.90
2018-10-12T01:25:13.295Z,16.17
2018-10-12T01:27:41.932Z,16.02
2018-10-12T01:30:11.263Z,17.12
2018-10-12T01:32:45.171Z,16.02
2018-10-12T01:35:14.431Z,17.23
2018-10-12T01:37:42.972Z,20.82
2018-10-12T01:40:11.775Z,13.10
2018-10-12T01:42:40.316Z,15.65
2018-10-12T01:45:09.006Z,13.90
2018-10-12T01:47:37.599Z,15.25
2018-10-12T01:50:06.235Z,15.75
2018-10-12T01:52:35.579Z,16.30
2018-10-12T01:55:04.179Z,13.45
2018-10-12T01:57:32.731Z,12.93
2018-10-12T02:00:01.609Z,16.02
2018-10-12T02:02:30.152Z,11.70
2018-10-12T02:04:58.746Z,16.73
2018-10-12T02:07:27.327Z,18.10
2018-10-12T02:09:56.827Z,19.70
2018-10-12T02:12:25.370Z,15.30
2018-10-12T02:14:54.107Z,13.83
2018-10-12T02:17:22.643Z,21.57
2018-10-12T02:19:51.191Z,18.73
2018-10-12T02:22:19.952Z,14.63
2018-10-12T02:24:48.503Z,18.65
2018-10-12T02:27:17.588Z,19.55
2018-10-12T02:29:46.110Z,12.25
2018-10-12T02:32:14.662Z,20.35
2018-10-12T02:34:43.432Z,14.10
2018-10-12T02:37:12.007Z,21.00
2018-10-12T02:39:40.619Z,21.50
2018-10-12T02:42:09.350Z,17.27
2018-10-12T02:44:37.888Z,28.12
2018-10-12T02:47:06.647Z,18.73
2018-10-12T02:49:35.187Z,18.30
2018-10-12T02:52:03.734Z,17.60
2018-10-12T02:54:32.269Z,19.20
2018-10-12T02:57:00.818Z,19.73
2018-10-12T02:59:29.670Z,19.73
2018-10-12T03:01:58.241Z,21.15
2018-10-12T03:04:26.796Z,25.10
2018-10-12T03:06:55.351Z,20.82
2018-10-12T03:09:24.079Z,21.35
2018-10-12T03:11:52.636Z,29.67
2018-10-12T03:14:21.175Z,23.65
2018-10-12T03:16:50.175Z,16.30
2018-10-12T03:19:18.740Z,18.90
2018-10-12T03:21:47.282Z,16.97
2018-10-12T03:24:15.835Z,26.02
2018-10-12T03:26:44.379Z,25.52
2018-10-12T03:29:13.004Z,31.07
2018-10-12T03:31:41.650Z,34.33
2018-10-12T03:34:10.478Z,33.58
2018-10-12T03:36:39.983Z,53.17
2018-10-12T03:39:09.152Z,48.83
2018-10-12T03:41:37.754Z,52.65
2018-10-12T03:44:06.796Z,42.25
2018-10-12T03:46:35.366Z,39.63
2018-10-12T03:49:03.931Z,35.08
2018-10-12T03:51:32.914Z,27.93
2018-10-12T03:54:02.083Z,22.98
2018-10-12T03:56:30.638Z,21.80
2018-10-12T03:58:59.175Z,22.20
2018-10-12T04:01:28.484Z,21.07
2018-10-12T04:03:57.026Z,26.60
2018-10-12T04:06:25.919Z,21.80
2018-10-12T04:08:54.951Z,22.42
2018-10-12T04:11:23.480Z,19.50
2018-10-12T04:13:52.062Z,26.77
2018-10-12T04:16:20.632Z,20.85
2018-10-12T04:18:49.168Z,23.18
2018-10-12T04:21:19.069Z,27.82
2018-10-12T04:23:47.579Z,28.32
2018-10-12T04:26:16.139Z,24.32
2018-10-12T04:28:44.699Z,30.62
2018-10-12T04:31:13.250Z,29.55
2018-10-12T04:33:41.844Z,20.77
2018-10-12T04:36:10.745Z,19.73
2018-10-12T04:38:51.053Z,28.85
2018-10-12T04:41:21.770Z,22.67
2018-10-12T04:43:52.394Z,27.30
2018-10-12T04:46:25.236Z,20.08
2018-10-12T04:48:54.207Z,32.17
2018-10-12T04:51:26.695Z,27.02
2018-10-12T04:53:55.433Z,23.18
2018-10-12T04:56:24.100Z,18.90
2018-10-12T04:58:52.718Z,20.37
2018-10-12T05:01:21.318Z,28.38
2018-10-12T05:03:49.897Z,20.62
2018-10-12T05:06:18.487Z,23.25
2018-10-12T05:08:47.059Z,37.48
2018-10-12T05:11:15.706Z,35.55
2018-10-12T05:13:44.245Z,34.33
2018-10-12T05:16:12.987Z,41.70
2018-10-12T05:18:41.530Z,32.73
2018-10-12T05:21:10.084Z,32.10
2018-10-12T05:23:39.237Z,34.15
2018-10-12T05:26:07.860Z,30.27
2018-10-12T05:28:37.553Z,24.57
2018-10-12T05:31:06.775Z,30.15
2018-10-12T05:33:35.598Z,26.55
2018-10-12T05:36:04.234Z,29.52
2018-10-12T05:38:33.859Z,21.55
2018-10-12T05:41:02.539Z,26.55
2018-10-12T05:43:31.361Z,23.77
2018-10-12T05:45:59.856Z,33.15
2018-10-12T05:48:40.493Z,52.05
2018-10-12T05:51:10.119Z,38.10
2018-10-12T05:53:39.482Z,40.85
2018-10-12T05:56:08.730Z,43.30
2018-10-12T05:58:38.565Z,30.45
2018-10-12T06:01:07.371Z,31.27
2018-10-12T06:03:35.934Z,31.85
2018-10-12T06:06:04.566Z,35.23
2018-10-12T06:08:33.150Z,43.20
2018-10-12T06:11:01.713Z,26.48
2018-10-12T06:13:30.514Z,34.23
2018-10-12T06:15:59.124Z,31.73
2018-10-12T06:18:27.651Z,28.42
2018-10-12T06:20:56.343Z,34.60
2018-10-12T06:23:25.115Z,39.10
2018-10-12T06:25:53.663Z,34.70
2018-10-12T06:28:22.215Z,34.13
2018-10-12T06:30:50.791Z,29.42
2018-10-12T06:33:19.739Z,38.67
2018-10-12T06:35:48.323Z,30.35
2018-10-12T06:38:16.891Z,34.55
2018-10-12T06:40:45.495Z,32.35
2018-10-12T06:43:14.022Z,30.95
2018-10-12T06:45:43.119Z,41.25
2018-10-12T06:48:11.711Z,36.10
2018-10-12T06:50:41.518Z,33.58
2018-10-12T06:53:10.206Z,30.97
2018-10-12T06:55:38.751Z,32.25
2018-10-12T06:58:07.811Z,42.10
2018-10-12T07:00:37.480Z,34.65
2018-10-12T07:03:06.787Z,37.48
2018-10-12T07:05:35.560Z,34.75
2018-10-12T07:08:04.086Z,39.53
2018-10-12T07:10:32.671Z,38.05
2018-10-12T07:13:01.951Z,35.28
2018-10-12T07:15:30.550Z,33.25
2018-10-12T07:17:59.089Z,45.67
2018-10-12T07:20:27.852Z,36.98
2018-10-12T07:22:56.455Z,37.50
2018-10-12T07:25:25.028Z,33.38
2018-10-12T07:27:53.583Z,36.70
2018-10-12T07:30:22.471Z,59.27
2018-10-12T07:32:51.019Z,38.50
2018-10-12T07:35:19.660Z,40.23
2018-10-12T07:37:48.796Z,39.50
2018-10-12T07:40:17.379Z,45.30
2018-10-12T07:42:45.947Z,43.10
2018-10-12T07:45:14.517Z,41.88
2018-10-12T07:47:43.074Z,48.25
2018-10-12T07:50:11.648Z,56.50
2018-10-12T07:52:40.520Z,43.73
2018-10-12T07:55:09.067Z,46.48
2018-10-12T07:57:37.615Z,33.00
2018-10-12T08:00:07.662Z,46.75
2018-10-12T08:02:36.203Z,36.98
2018-10-12T08:05:04.815Z,38.75
2018-10-12T08:07:33.358Z,43.50
2018-10-12T08:10:01.911Z,36.83
2018-10-12T08:12:30.499Z,39.10
2018-10-12T08:14:59.046Z,37.67
2018-10-12T08:17:27.591Z,31.55
2018-10-12T08:19:56.235Z,43.20
2018-10-12T08:22:24.799Z,41.58
2018-10-12T08:24:53.343Z,43.02
2018-10-12T08:27:22.048Z,34.23
2018-10-12T08:29:50.604Z,34.95
2018-10-12T08:32:19.255Z,35.28
2018-10-12T08:34:47.819Z,38.80
2018-10-12T08:37:16.369Z,35.35
2018-10-12T08:39:45.127Z,35.80
2018-10-12T08:42:13.680Z,33.92
2018-10-12T08:44:42.271Z,41.30
2018-10-12T08:47:10.894Z,37.98
2018-10-12T08:49:39.442Z,46.00
2018-10-12T08:52:08.005Z,35.65
2018-10-12T08:54:36.545Z,37.88
2018-10-12T08:57:05.391Z,28.62
2018-10-12T08:59:34.047Z,35.68
2018-10-12T09:02:02.591Z,31.00
2018-10-12T09:04:31.127Z,36.30
2018-10-12T09:06:59.677Z,34.53
2018-10-12T09:09:28.951Z,37.13
2018-10-12T09:11:57.535Z,41.55
2018-10-12T09:14:26.107Z,34.27
2018-10-12T09:16:54.679Z,39.35
2018-10-12T09:19:23.523Z,37.78
2018-10-12T09:21:52.115Z,31.55
2018-10-12T09:24:20.692Z,35.13
2018-10-12T09:26:49.318Z,37.13
2018-10-12T09:29:17.866Z,31.42
2018-10-12T09:31:46.532Z,38.78
2018-10-12T09:34:15.075Z,35.03
2018-10-12T09:36:43.910Z,38.30
2018-10-12T09:39:12.834Z,42.95
2018-10-12T09:41:41.375Z,31.52
2018-10-12T09:44:10.999Z,33.95
2018-10-12T09:46:39.590Z,28.32
2018-10-12T09:49:08.338Z,35.03
2018-10-12T09:51:37.067Z,36.63
2018-10-12T09:54:05.633Z,40.23
2018-10-12T09:56:34.209Z,45.58
2018-10-12T09:59:02.799Z,34.10
2018-10-12T10:01:37.136Z,37.70
2018-10-12T10:04:10.986Z,36.13
2018-10-12T10:06:39.991Z,35.85
2018-10-12T10:09:08.534Z,40.58
2018-10-12T10:11:37.070Z,31.10
2018-10-12T10:14:05.603Z,27.58
2018-10-12T10:16:34.265Z,28.90
2018-10-12T10:19:02.818Z,34.78
2018-10-12T10:21:31.362Z,38.48
2018-10-12T10:24:00.095Z,34.73
2018-10-12T10:26:28.663Z,42.27
2018-10-12T10:28:57.198Z,38.50
2018-10-12T10:31:26.222Z,32.28
2018-10-12T10:33:54.779Z,33.33
2018-10-12T10:36:24.252Z,35.38
2018-10-12T10:38:53.125Z,35.43
2018-10-12T10:41:21.673Z,32.90
2018-10-12T10:43:50.692Z,36.30
2018-10-12T10:46:19.369Z,37.20
2018-10-12T10:48:48.678Z,33.05
2018-10-12T10:51:17.752Z,37.15
2018-10-12T10:53:47.636Z,28.00
2018-10-12T10:56:16.435Z,28.87
2018-10-12T10:58:46.959Z,40.35
2018-10-12T11:01:15.823Z,35.92
2018-10-12T11:03:44.379Z,32.08
2018-10-12T11:06:13.065Z,34.65
2018-10-12T11:08:41.619Z,35.33
2018-10-12T11:11:10.175Z,29.77
2018-10-12T11:13:38.879Z,34.20
2018-10-12T11:16:07.459Z,38.50
2018-10-12T11:18:37.010Z,36.95
2018-10-12T11:21:06.004Z,33.90
2018-10-12T11:23:34.544Z,34.50
2018-10-12T11:26:03.430Z,32.42
2018-10-12T11:28:32.016Z,31.87
2018-10-12T11:31:00.619Z,32.73
2018-10-12T11:33:29.160Z,30.30
2018-10-12T11:35:58.219Z,22.82
2018-10-12T11:38:26.946Z,28.12
2018-10-12T11:40:55.499Z,27.52
2018-10-12T11:43:33.803Z,34.67
2018-10-12T11:46:02.858Z,29.23
2018-10-12T11:48:31.887Z,32.45
2018-10-12T11:51:00.822Z,26.87
2018-10-12T11:53:29.530Z,29.67
2018-10-12T11:55:58.079Z,30.90
2018-10-12T11:58:26.814Z,30.75
2018-10-12T12:00:55.799Z,28.83
2018-10-12T12:03:24.368Z,31.05
2018-10-12T12:05:52.968Z,28.15
2018-10-12T12:08:21.527Z,36.00
2018-10-12T12:10:50.091Z,26.85
2018-10-12T12:13:18.683Z,43.17
2018-10-12T12:15:47.478Z,31.97
2018-10-12T12:18:16.055Z,35.43
2018-10-12T12:20:44.615Z,24.50
2018-10-12T12:23:13.513Z,25.75
2018-10-12T12:25:42.059Z,30.00
2018-10-12T12:28:10.628Z,28.10
2018-10-12T12:30:39.179Z,22.63
2018-10-12T12:33:07.759Z,30.83
2018-10-12T12:35:37.260Z,34.63
2018-10-12T12:38:05.479Z,26.93
2018-10-12T12:40:34.035Z,23.13
2018-10-12T12:43:02.605Z,20.70
2018-10-12T12:45:31.182Z,24.10
2018-10-12T12:48:00.024Z,24.27
2018-10-12T12:50:28.357Z,25.23
2018-10-12T12:54:26.103Z,24.40
2018-10-12T12:56:54.652Z,28.20
2018-10-12T12:59:23.467Z,28.33
2018-10-12T13:01:52.319Z,22.60
2018-10-12T13:04:21.043Z,28.53
2018-10-12T13:06:49.667Z,22.63
2018-10-12T13:09:18.203Z,31.13
2018-10-12T13:11:47.230Z,25.90
2018-10-12T13:14:15.803Z,21.87
2018-10-12T13:16:44.342Z,25.43
2018-10-12T13:19:12.884Z,27.90
2018-10-12T13:23:10.852Z,26.30
2018-10-12T13:25:39.475Z,26.67
2018-10-12T13:28:08.381Z,32.13
2018-10-12T13:30:36.953Z,24.97
2018-10-12T13:33:05.955Z,22.57
2018-10-12T13:35:34.725Z,22.77
2018-10-12T13:38:03.263Z,25.80
2018-10-12T13:40:32.255Z,27.23
2018-10-12T13:43:00.790Z,25.60
2018-10-12T13:45:29.343Z,22.80
2018-10-12T13:47:57.891Z,29.93
2018-10-12T13:50:26.439Z,24.50
2018-10-12T13:52:54.991Z,30.00
2018-10-12T13:55:23.568Z,24.10
2018-10-12T13:57:52.639Z,31.10
2018-10-12T14:00:21.199Z,26.87
2018-10-12T14:02:49.747Z,31.10
2018-10-12T14:05:18.309Z,28.90
2018-10-12T14:07:46.896Z,23.30
2018-10-12T14:10:15.457Z,27.13
2018-10-12T14:12:44.003Z,39.08
2018-10-12T14:15:13.076Z,37.15
2018-10-12T14:17:41.629Z,27.67
2018-10-12T14:20:10.216Z,31.23
2018-10-12T14:22:38.771Z,29.45
2018-10-12T14:25:08.009Z,27.15
2018-10-12T14:27:36.690Z,32.95
2018-10-12T14:30:05.681Z,26.65
2018-10-12T14:32:34.287Z,32.95
2018-10-12T14:35:02.846Z,29.87
2018-10-12T14:37:31.432Z,24.75
2018-10-12T14:39:59.991Z,32.00
2018-10-12T14:42:28.580Z,31.85
2018-10-12T14:44:57.172Z,29.20
2018-10-12T14:47:26.016Z,33.78
2018-10-12T14:49:54.970Z,30.92
2018-10-12T14:52:23.511Z,32.48
2018-10-12T14:54:52.207Z,38.38
2018-10-12T14:57:21.576Z,35.03
2018-10-12T14:59:50.994Z,31.75
2018-10-12T15:02:20.519Z,33.08
2018-10-12T15:04:49.107Z,36.75
2018-10-12T15:07:17.655Z,31.93
2018-10-12T15:09:46.191Z,31.60
2018-10-12T15:12:14.751Z,33.58
2018-10-12T15:14:54.515Z,36.30
2018-10-12T15:17:23.061Z,33.23
2018-10-12T15:19:51.807Z,34.13
2018-10-12T15:22:20.355Z,33.48
2018-10-12T15:24:48.908Z,38.15
2018-10-12T15:27:17.501Z,38.95
2018-10-12T15:29:46.039Z,33.73
2018-10-12T15:32:14.667Z,37.38
2018-10-12T15:34:43.159Z,34.08
2018-10-12T15:37:11.777Z,44.93
2018-10-12T15:39:40.448Z,41.88
2018-10-12T15:42:09.094Z,38.65
2018-10-12T15:44:37.835Z,36.88
2018-10-12T15:47:06.371Z,36.35
2018-10-12T15:49:34.930Z,34.83
2018-10-12T15:52:03.573Z,38.13
2018-10-12T15:54:32.185Z,41.25
2018-10-12T15:57:00.820Z,33.45
2018-10-12T15:59:29.326Z,30.80
2018-10-12T16:01:57.969Z,39.78
2018-10-12T16:04:26.535Z,39.08
2018-10-12T16:06:55.130Z,46.68
2018-10-12T16:09:24.291Z,40.12
2018-10-12T16:11:53.971Z,50.15
2018-10-12T16:14:23.295Z,57.45
2018-10-12T16:16:51.975Z,62.73
2018-10-12T16:19:20.521Z,48.45
2018-10-12T16:21:49.127Z,40.88
2018-10-12T16:24:17.670Z,35.80
2018-10-12T16:26:46.224Z,45.52
2018-10-12T16:29:14.873Z,42.30
2018-10-12T16:31:43.863Z,37.10
2018-10-12T16:34:12.408Z,41.53
2018-10-12T16:36:41.011Z,37.63
2018-10-12T16:39:10.339Z,37.45
2018-10-12T16:41:39.487Z,46.63
2018-10-12T16:44:08.351Z,42.95
2018-10-12T16:46:36.936Z,38.95
2018-10-12T16:49:06.512Z,34.13
2018-10-12T16:51:35.104Z,47.08
2018-10-12T16:54:03.707Z,51.68
2018-10-12T16:56:32.511Z,43.87
2018-10-12T16:59:01.324Z,39.58
2018-10-12T17:01:29.970Z,52.58
2018-10-12T17:03:58.519Z,40.28
2018-10-12T17:06:27.233Z,44.88
2018-10-12T17:08:55.795Z,41.92
2018-10-12T17:11:24.562Z,45.15
2018-10-12T17:13:53.104Z,33.18
2018-10-12T17:16:21.639Z,40.58
2018-10-12T17:18:50.186Z,55.25
2018-10-12T17:21:19.039Z,49.50
2018-10-12T17:23:47.607Z,37.17
2018-10-12T17:26:16.187Z,38.83
2018-10-12T17:28:44.727Z,40.90
2018-10-12T17:31:13.286Z,47.73
2018-10-12T17:33:41.870Z,40.08
2018-10-12T17:36:10.454Z,43.52
2018-10-12T17:38:38.999Z,40.50
2018-10-12T17:41:15.335Z,50.35
2018-10-12T17:43:44.223Z,48.55
2018-10-12T17:46:13.484Z,45.88
2018-10-12T17:48:42.119Z,43.30
2018-10-12T17:51:11.063Z,41.05
2018-10-12T17:53:39.614Z,38.60
2018-10-12T17:56:08.200Z,40.88
2018-10-12T17:58:36.866Z,39.55
2018-10-12T18:01:06.460Z,41.83
2018-10-12T18:03:35.357Z,47.45
2018-10-12T18:06:04.615Z,39.20
2018-10-12T18:08:33.279Z,52.13
2018-10-12T18:11:02.365Z,39.67
2018-10-12T18:13:30.952Z,41.10
2018-10-12T18:15:59.509Z,42.00
2018-10-12T18:18:28.056Z,45.38
2018-10-12T18:20:57.250Z,41.20
2018-10-12T18:23:25.788Z,39.42
2018-10-12T18:25:54.396Z,41.55
2018-10-12T18:28:23.318Z,47.03
2018-10-12T18:30:51.955Z,37.45
2018-10-12T18:33:20.541Z,48.10
2018-10-12T18:35:49.067Z,54.33
2018-10-12T18:38:17.639Z,44.48
2018-10-12T18:40:46.175Z,38.73
2018-10-12T18:43:14.812Z,40.48
2018-10-12T18:45:43.415Z,42.33
2018-10-12T18:48:11.979Z,41.75
2018-10-12T18:50:40.537Z,44.03
2018-10-12T18:53:09.239Z,38.60
2018-10-12T18:55:37.785Z,48.80
2018-10-12T18:58:06.403Z,48.70
2018-10-12T19:00:34.947Z,38.00
2018-10-12T19:03:03.512Z,35.50
2018-10-12T19:05:32.233Z,51.05
2018-10-12T19:08:00.771Z,46.10
2018-10-12T19:10:29.311Z,37.63
2018-10-12T19:12:57.954Z,37.42
2018-10-12T19:15:26.791Z,39.40
2018-10-12T19:17:55.380Z,41.83
2018-10-12T19:20:24.351Z,33.92
2018-10-12T19:22:52.891Z,43.92
2018-10-12T19:25:21.455Z,36.33
2018-10-12T19:27:50.019Z,43.13
2018-10-12T19:30:18.575Z,45.80
2018-10-12T19:32:47.127Z,45.25
2018-10-12T19:35:16.003Z,43.50
2018-10-12T19:37:44.563Z,35.23
2018-10-12T19:40:13.111Z,45.20
2018-10-12T19:42:41.677Z,45.05
2018-10-12T19:45:10.215Z,40.03
2018-10-12T19:47:38.758Z,52.78
2018-10-12T19:50:07.341Z,41.33
2018-10-12T19:52:36.434Z,36.42
2018-10-12T19:55:05.360Z,36.80
2018-10-12T19:57:33.927Z,43.92
2018-10-12T20:00:03.317Z,42.15
2018-10-12T20:02:31.859Z,46.63
2018-10-12T20:05:01.104Z,40.60
2018-10-12T20:07:29.648Z,39.65
2018-10-12T20:09:58.286Z,35.75
2018-10-12T20:12:26.848Z,59.10
2018-10-12T20:14:55.407Z,45.38
2018-10-12T20:17:27.861Z,37.85
2018-10-12T20:19:56.383Z,39.85
2018-10-12T20:22:24.933Z,45.78
2018-10-12T20:24:53.475Z,39.20
2018-10-12T20:27:22.012Z,40.50
2018-10-12T20:29:50.709Z,43.25
2018-10-12T20:32:19.243Z,46.68
2018-10-12T20:34:47.795Z,39.98
2018-10-12T20:37:16.447Z,38.10
2018-10-12T20:39:47.772Z,54.42
2018-10-12T20:42:16.323Z,52.45
2018-10-12T20:44:53.083Z,37.45
2018-10-12T20:47:22.007Z,37.90
2018-10-12T20:49:50.635Z,40.20
2018-10-12T20:52:19.176Z,38.85
2018-10-12T20:54:47.827Z,44.40
2018-10-12T20:57:16.408Z,39.65
2018-10-12T20:59:44.964Z,44.03
2018-10-12T21:02:13.568Z,40.48
2018-10-12T21:04:42.160Z,44.38
2018-10-12T21:07:10.817Z,49.48
2018-10-12T21:09:39.381Z,38.40
2018-10-12T21:12:07.939Z,38.83
2018-10-12T21:14:36.486Z,37.70
2018-10-12T21:17:05.069Z,44.23
2018-10-12T21:19:33.631Z,41.42
2018-10-12T21:22:02.652Z,49.93
2018-10-12T21:24:31.195Z,40.95
2018-10-12T21:26:59.741Z,45.17
2018-10-12T21:29:28.568Z,42.67
2018-10-12T21:31:57.111Z,40.43
2018-10-12T21:34:25.657Z,50.03
2018-10-12T21:36:54.215Z,40.40
2018-10-12T21:39:23.048Z,50.08
2018-10-12T21:41:52.022Z,34.50
2018-10-12T21:44:20.590Z,47.05
2018-10-12T21:46:49.247Z,38.55
2018-10-12T21:49:18.030Z,36.13
2018-10-12T21:51:47.300Z,37.75
2018-10-12T21:54:15.838Z,44.35
2018-10-12T21:56:44.408Z,46.90
2018-10-12T21:59:12.946Z,37.20
2018-10-12T22:01:41.507Z,48.85
2018-10-12T22:04:10.198Z,41.70
2018-10-12T22:06:38.739Z,43.75
2018-10-12T22:09:08.821Z,43.48
2018-10-12T22:11:38.003Z,48.85
2018-10-12T22:14:06.654Z,46.13
2018-10-12T22:16:35.235Z,38.50
2018-10-12T22:19:04.384Z,34.50
2018-10-12T22:21:32.919Z,40.28
2018-10-12T22:24:01.488Z,43.40
2018-10-12T22:26:30.103Z,36.40
2018-10-12T22:28:58.707Z,50.67
2018-10-12T22:31:27.264Z,47.30
2018-10-12T22:33:55.818Z,41.63
2018-10-12T22:36:24.878Z,46.95
2018-10-12T22:38:53.420Z,40.78
2018-10-12T22:41:22.001Z,42.53
2018-10-12T22:43:50.539Z,44.55
2018-10-12T22:46:19.075Z,44.00
2018-10-12T22:48:47.883Z,43.80
2018-10-12T22:51:16.446Z,40.88
2018-10-12T22:53:44.999Z,41.75
2018-10-12T22:56:13.536Z,52.03
2018-10-12T22:58:42.147Z,48.65
2018-10-12T23:01:10.703Z,53.55
2018-10-12T23:03:39.292Z,47.05
2018-10-12T23:06:08.291Z,42.33
2018-10-12T23:08:36.826Z,40.78
2018-10-12T23:11:06.553Z,43.30
2018-10-12T23:13:35.141Z,38.48
2018-10-12T23:16:03.740Z,48.75
2018-10-12T23:18:32.308Z,40.80
2018-10-12T23:21:00.923Z,43.38
2018-10-12T23:23:29.642Z,49.27
2018-10-12T23:25:58.172Z,40.30
2018-10-12T23:28:26.723Z,39.00
2018-10-12T23:30:55.491Z,46.92
2018-10-12T23:33:35.405Z,44.27
2018-10-12T23:36:03.999Z,52.45
2018-10-12T23:38:32.585Z,50.00
2018-10-12T23:41:01.130Z,39.27
2018-10-12T23:43:29.863Z,38.55
2018-10-12T23:45:58.416Z,49.83
2018-10-12T23:48:26.970Z,39.25
2018-10-12T23:50:55.760Z,38.80
2018-10-12T23:53:24.355Z,50.88
2018-10-12T23:55:52.943Z,42.88
2018-10-12T23:58:21.922Z,37.50
